Time;durP1;ratioP1;P1;durP2;ratioP2;P2;SDS_P1;SDS_P2;PMS_P1;PMS_P2;Temp;Humidity;BMP_temperature;BMP_pressure;BME280_temperature;BME280_humidity;BME280_pressure;Samples;Min_cycle;Max_cycle;Signal;HPM_P1;HPM_P2
2021/06/30 00:01:18;;;;;;;1.20;1.10;;;26.70;47.60;;;30.56;31.61;100586.28;5134390;28;20058;-52
2021/06/30 00:03:44;;;;;;;1.17;1.13;;;26.70;47.40;;;30.53;31.50;100575.81;5134062;28;20476;-50
2021/06/30 00:06:11;;;;;;;1.48;1.30;;;26.70;47.40;;;30.55;31.65;100581.06;5134328;28;20097;-49
2021/06/30 00:08:37;;;;;;;1.30;1.20;;;26.70;47.50;;;30.50;31.76;100572.63;5134510;28;20072;-49
2021/06/30 00:11:04;;;;;;;1.33;1.23;;;26.70;47.50;;;30.48;31.70;100570.06;5133995;28;20047;-51
2021/06/30 00:13:30;;;;;;;1.02;1.00;;;26.70;47.50;;;30.49;31.67;100571.78;5114369;28;20122;-53
2021/06/30 00:15:56;;;;;;;1.02;1.02;;;26.70;47.50;;;30.50;31.70;100567.22;5133797;28;20130;-51
2021/06/30 00:18:23;;;;;;;1.00;1.00;;;26.70;48.00;;;30.51;31.70;100571.63;5133717;28;20047;-50
2021/06/30 00:20:50;;;;;;;1.25;1.13;;;26.70;47.50;;;30.44;31.65;100563.34;5133857;28;20055;-54
2021/06/30 00:23:16;;;;;;;1.40;1.30;;;26.70;47.50;;;30.47;31.62;100565.69;5134097;28;20051;-50
2021/06/30 00:25:43;;;;;;;1.40;1.30;;;26.70;47.60;;;30.48;31.69;100564.69;5134148;28;20058;-54
2021/06/30 00:28:09;;;;;;;1.20;1.10;;;26.60;47.50;;;30.44;31.65;100555.25;5133662;28;20070;-51
2021/06/30 00:30:36;;;;;;;1.15;1.05;;;26.60;47.50;;;30.45;31.66;100559.59;5133707;28;20517;-51
2021/06/30 00:33:03;;;;;;;1.23;1.13;;;26.70;47.60;;;30.44;31.90;100561.47;5134239;28;20069;-53
2021/06/30 00:35:29;;;;;;;1.25;1.15;;;26.60;47.50;;;30.45;31.76;100560.44;5134006;28;20047;-52
2021/06/30 00:37:54;;;;;;;0.93;0.93;;;26.60;47.60;;;30.42;31.74;100552.72;5133470;27;20058;-54
2021/06/30 00:40:20;;;;;;;1.40;1.30;;;26.60;47.60;;;30.40;31.78;100556.56;5133488;28;20549;-49
2021/06/30 00:42:46;;;;;;;1.35;1.27;;;26.60;47.60;;;30.38;31.86;100537.00;5115188;28;20416;-53
2021/06/30 00:45:17;;;;;;;1.58;1.48;;;26.60;47.70;;;30.37;31.66;100538.88;5133403;28;20055;-53
2021/06/30 00:47:44;;;;;;;1.20;1.15;;;26.60;47.70;;;30.41;31.83;100545.63;5133571;28;20039;-49
2021/06/30 00:50:13;;;;;;;1.27;1.17;;;26.60;47.70;;;30.36;32.01;100528.22;5133498;28;20077;-54
2021/06/30 00:52:39;;;;;;;1.40;1.30;;;26.50;47.60;;;30.37;31.96;100538.88;5133412;28;20087;-49
2021/06/30 00:55:05;;;;;;;1.10;1.10;;;26.60;47.70;;;30.36;31.88;100537.19;5133028;28;20407;-54
2021/06/30 00:57:31;;;;;;;1.00;1.00;;;26.60;47.70;;;30.36;32.02;100526.38;5133982;28;20507;-50
2021/06/30 00:59:57;;;;;;;1.60;1.15;;;26.60;47.70;;;30.38;31.86;100537.84;5114847;28;20078;-52
2021/06/30 01:02:23;;;;;;;1.30;1.20;;;26.50;47.70;;;30.34;31.98;100533.78;5098079;28;20485;-49
2021/06/30 01:04:51;;;;;;;1.17;1.10;;;26.60;47.80;;;30.32;31.92;100524.97;5133288;28;20096;-54
2021/06/30 01:07:18;;;;;;;1.20;1.10;;;26.60;47.80;;;30.31;31.90;100526.00;5133177;28;20043;-52
2021/06/30 01:09:44;;;;;;;1.30;1.20;;;26.60;47.80;;;30.32;31.72;100519.59;5133092;28;20050;-51
2021/06/30 01:12:10;;;;;;;1.75;1.10;;;26.50;47.70;;;30.33;32.15;100529.38;5133415;28;20047;-49
2021/06/30 01:14:37;;;;;;;1.17;1.08;;;26.50;47.80;;;30.34;31.86;100530.22;5112685;28;20047;-51
2021/06/30 01:17:06;;;;;;;1.35;1.25;;;26.50;47.80;;;30.32;31.90;100524.16;5133105;28;20448;-53
2021/06/30 01:19:34;;;;;;;0.80;0.80;;;26.50;47.80;;;30.31;31.96;100528.69;5113551;28;20052;-50
2021/06/30 01:22:01;;;;;;;1.05;1.05;;;26.50;47.80;;;30.30;31.97;100527.88;5132573;28;20051;-50
2021/06/30 01:24:27;;;;;;;1.30;1.20;;;26.50;47.80;;;30.27;31.99;100520.09;5132798;28;20047;-48
2021/06/30 01:26:53;;;;;;;1.02;1.02;;;26.50;47.90;;;30.26;32.09;100507.63;5133078;28;20051;-54
2021/06/30 01:29:22;;;;;;;1.48;1.13;;;26.50;47.90;;;30.26;32.02;100515.72;5133137;28;20484;-52
2021/06/30 01:31:50;;;;;;;1.17;1.17;;;26.50;47.90;;;30.25;32.07;100519.41;5132939;28;20070;-52
2021/06/30 01:34:17;;;;;;;1.27;1.17;;;26.50;48.00;;;30.20;31.88;100502.88;5132944;28;20062;-51
2021/06/30 01:36:46;;;;;;;1.30;1.20;;;26.50;47.90;;;30.23;32.05;100517.91;5113734;28;20058;-53
2021/06/30 01:39:11;;;;;;;1.20;1.10;;;26.50;47.90;;;30.25;32.16;100522.09;5132510;28;20054;-52
2021/06/30 01:41:38;;;;;;;1.20;1.10;;;26.50;47.90;;;30.22;32.25;100521.59;5133131;28;20047;-50
2021/06/30 01:44:04;;;;;;;1.30;1.20;;;26.50;48.00;;;30.23;32.11;100523.28;5133143;28;20130;-52
2021/06/30 01:46:30;;;;;;;1.45;1.35;;;26.50;48.00;;;30.22;32.16;100526.97;5132691;28;20565;-53
2021/06/30 01:48:56;;;;;;;1.17;1.17;;;26.50;48.00;;;30.22;32.26;100525.16;5132880;27;20071;-51
2021/06/30 01:51:22;;;;;;;1.33;1.23;;;26.50;48.00;;;30.22;32.06;100533.25;5135669;28;20049;-50
2021/06/30 01:53:47;;;;;;;1.30;1.20;;;26.50;48.00;;;30.19;32.26;100524.59;5136656;28;20468;-52
2021/06/30 01:56:13;;;;;;;1.30;1.20;;;26.50;48.00;;;30.22;32.27;100537.75;5136057;28;20389;-48
2021/06/30 01:58:39;;;;;;;1.13;1.10;;;26.50;48.00;;;30.20;32.22;100540.63;5136310;28;20122;-51
2021/06/30 02:01:05;;;;;;;1.25;1.15;;;26.50;48.10;;;30.20;32.17;100546.03;5136012;28;20077;-47
2021/06/30 02:03:31;;;;;;;1.30;1.20;;;26.50;48.00;;;30.20;32.02;100547.88;5136050;28;20725;-52
2021/06/30 02:05:56;;;;;;;1.30;1.20;;;26.50;48.00;;;30.18;32.30;100539.94;5136077;28;20059;-52
2021/06/30 02:08:22;;;;;;;1.13;1.02;;;26.40;48.00;;;30.19;32.27;100547.03;5135990;28;20043;-52
2021/06/30 02:10:48;;;;;;;1.20;1.10;;;26.40;48.00;;;30.15;32.19;100542.97;5136222;28;20458;-52
2021/06/30 02:13:14;;;;;;;1.10;1.00;;;26.40;48.00;;;30.15;32.25;100553.75;5135654;28;20084;-51
2021/06/30 02:15:41;;;;;;;1.30;1.20;;;26.40;48.00;;;30.18;32.11;100563.38;5135820;28;20050;-47
2021/06/30 02:18:08;;;;;;;1.40;1.30;;;26.40;48.00;;;30.15;32.21;100555.63;5135714;28;20039;-54
2021/06/30 02:20:34;;;;;;;0.98;0.98;;;26.40;48.00;;;30.18;32.28;100555.28;5135766;28;20453;-50
2021/06/30 02:23:00;;;;;;;1.13;1.10;;;26.40;48.00;;;30.16;32.43;100554.63;5135559;28;20054;-52
2021/06/30 02:25:29;;;;;;;1.20;1.10;;;26.40;48.10;;;30.14;32.30;100551.22;5135676;28;20051;-50
2021/06/30 02:27:56;;;;;;;1.35;1.20;;;26.40;48.00;;;30.12;32.39;100548.69;5135611;28;20051;-50
2021/06/30 02:30:29;;;;;;;1.38;1.27;;;26.40;48.10;;;30.10;32.46;100548.00;5135857;28;20054;-48
2021/06/30 02:32:56;;;;;;;1.30;1.23;;;26.40;48.10;;;30.14;32.21;100548.53;5135973;28;20054;-51
2021/06/30 02:35:24;;;;;;;1.20;1.10;;;26.40;48.10;;;30.14;32.24;100549.38;5135432;28;20485;-47
2021/06/30 02:37:53;;;;;;;1.30;1.20;;;26.40;48.10;;;30.09;32.24;100540.94;5135450;28;20055;-50
2021/06/30 02:40:21;;;;;;;1.13;1.10;;;26.40;48.20;;;30.12;32.32;100540.59;5135460;28;20047;-51
2021/06/30 02:42:47;;;;;;;1.05;1.05;;;26.40;48.10;;;30.09;32.31;100531.00;5135401;28;20560;-50
2021/06/30 02:45:16;;;;;;;1.30;1.20;;;26.40;48.70;;;30.09;32.31;100543.66;5135772;28;20396;-48
2021/06/30 02:47:45;;;;;;;1.40;1.30;;;26.40;48.20;;;30.10;32.30;100540.78;5135291;28;20047;-53
2021/06/30 02:50:13;;;;;;;1.40;1.30;;;26.40;48.70;;;30.08;32.32;100529.31;5135593;28;20043;-52
2021/06/30 02:52:39;;;;;;;1.10;1.10;;;26.40;48.20;;;30.08;32.25;100536.56;5117079;28;20054;-51
2021/06/30 02:55:07;;;;;;;1.30;1.20;;;26.40;48.20;;;30.09;32.33;100532.88;5134998;28;20104;-53
2021/06/30 02:57:33;;;;;;;1.02;1.02;;;26.40;48.20;;;30.07;32.40;100529.47;5135082;28;20054;-52
2021/06/30 03:00:01;;;;;;;1.10;1.00;;;26.30;48.20;;;30.06;32.49;100530.50;5135173;28;20051;-49
2021/06/30 03:02:27;;;;;;;1.00;1.00;;;26.40;48.20;;;30.08;32.41;100536.56;5115424;28;20489;-48
2021/06/30 03:04:52;;;;;;;1.30;1.10;;;26.40;48.20;;;30.08;32.33;100529.31;5135272;28;20055;-52
2021/06/30 03:07:18;;;;;;;1.00;0.90;;;26.40;48.20;;;30.04;32.40;100519.88;5135028;28;20376;-51
2021/06/30 03:09:44;;;;;;;1.33;1.20;;;26.30;48.20;;;30.07;32.58;100526.75;5135246;28;20065;-51
2021/06/30 03:12:10;;;;;;;1.30;1.20;;;26.40;48.30;;;30.05;32.58;100524.22;5134675;28;20051;-51
2021/06/30 03:14:36;;;;;;;1.20;1.10;;;26.30;48.20;;;30.05;32.33;100523.41;5115633;28;20051;-49
2021/06/30 03:17:01;;;;;;;1.48;1.38;;;26.30;48.30;;;30.04;32.27;100522.56;5134758;28;20480;-46
2021/06/30 03:19:27;;;;;;;1.50;1.40;;;26.30;48.30;;;30.03;32.56;100517.34;5132703;28;20058;-50
2021/06/30 03:21:53;;;;;;;1.00;1.00;;;26.30;48.30;;;30.05;32.44;100528.78;5134612;28;20047;-51
2021/06/30 03:24:19;;;;;;;1.30;1.23;;;26.30;48.30;;;30.02;32.39;100526.41;5134687;28;20050;-51
2021/06/30 03:26:45;;;;;;;1.30;1.20;;;26.30;48.30;;;30.02;32.38;100519.19;5135170;28;20047;-46
2021/06/30 03:29:10;;;;;;;1.30;1.20;;;26.30;48.30;;;30.04;32.65;100529.81;5134532;28;20043;-51
2021/06/30 03:31:36;;;;;;;1.25;1.15;;;26.30;48.30;;;30.04;32.38;100521.72;5134938;28;20050;-50
2021/06/30 03:34:02;;;;;;;1.30;1.20;;;26.30;48.30;;;29.99;32.55;100521.34;5134492;28;20043;-50
2021/06/30 03:36:28;;;;;;;1.23;1.17;;;26.30;48.30;;;30.04;32.63;100525.25;5134307;28;20070;-51
2021/06/30 03:38:54;;;;;;;1.33;1.23;;;26.30;48.30;;;30.03;32.70;100526.25;5134441;28;20476;-48
2021/06/30 03:41:20;;;;;;;1.40;1.30;;;26.30;48.30;;;30.02;32.33;100521.03;5134392;28;20484;-50
2021/06/30 03:43:45;;;;;;;1.30;1.20;;;26.30;48.30;;;30.04;32.52;100525.25;5115860;28;20512;-51
2021/06/30 03:46:12;;;;;;;1.73;1.25;;;26.30;48.30;;;30.04;32.59;100532.50;5134571;28;20053;-49
2021/06/30 03:48:38;;;;;;;1.25;1.15;;;26.30;48.30;;;30.04;32.41;100535.22;5134311;28;20172;-49
2021/06/30 03:51:04;;;;;;;1.00;1.00;;;26.30;48.40;;;30.02;32.64;100526.41;5134238;28;20058;-51
2021/06/30 03:53:30;;;;;;;1.27;1.20;;;26.30;48.30;;;30.02;32.45;100542.59;5134216;28;20047;-48
2021/06/30 03:55:56;;;;;;;1.33;1.23;;;26.30;48.30;;;30.02;32.64;100538.06;5134517;28;20385;-51
2021/06/30 03:58:22;;;;;;;1.33;1.23;;;26.30;48.30;;;30.04;32.64;100540.59;5134247;28;20045;-48
2021/06/30 04:00:48;;;;;;;1.38;1.27;;;26.30;48.30;;;30.03;32.45;100537.03;5134106;28;20122;-49
2021/06/30 04:03:14;;;;;;;1.27;1.17;;;26.30;48.30;;;30.02;32.71;100538.06;5134101;28;20039;-49
2021/06/30 04:05:40;;;;;;;1.10;1.10;;;26.30;48.30;;;30.02;32.45;100540.75;5134427;28;20083;-51
2021/06/30 04:08:09;;;;;;;1.40;1.30;;;26.30;48.40;;;29.99;32.50;100533.00;5133813;28;20074;-50
2021/06/30 04:10:35;;;;;;;1.27;1.17;;;26.30;48.40;;;30.01;32.56;100544.44;5134351;28;20043;-47
2021/06/30 04:13:02;;;;;;;1.10;1.10;;;26.30;48.40;;;30.03;32.71;100542.44;5133521;27;20050;-46
2021/06/30 04:15:28;;;;;;;1.50;1.40;;;26.30;48.30;;;30.03;32.45;100546.97;5133889;28;20438;-51
2021/06/30 04:17:54;;;;;;;1.25;1.17;;;26.30;48.40;;;30.03;32.54;100542.44;5133893;28;20051;-50
2021/06/30 04:20:20;;;;;;;1.27;1.17;;;26.30;48.40;;;30.02;32.69;100540.75;5133862;28;20051;-45
2021/06/30 04:22:46;;;;;;;1.27;1.20;;;26.30;48.40;;;30.02;32.56;100535.38;5133746;28;20485;-51
2021/06/30 04:25:12;;;;;;;1.10;1.10;;;26.30;48.40;;;30.04;32.84;100537.91;5134083;28;20038;-50
2021/06/30 04:27:38;;;;;;;1.27;1.20;;;26.30;48.30;;;30.03;32.53;100528.13;5133871;28;20051;-47
2021/06/30 04:30:08;;;;;;;1.20;1.10;;;26.30;48.30;;;30.06;32.67;100536.72;5134041;28;20042;-47
2021/06/30 04:32:33;;;;;;;1.10;1.10;;;26.40;48.40;;;30.07;32.59;100530.31;5133883;28;20047;-50
2021/06/30 04:34:59;;;;;;;0.90;0.90;;;26.30;48.30;;;30.06;32.51;100531.31;5134118;28;20051;-47
2021/06/30 04:37:25;;;;;;;1.00;1.00;;;26.30;48.30;;;30.06;32.57;100536.72;5134004;28;20057;-49
2021/06/30 04:39:51;;;;;;;1.10;1.00;;;26.40;48.40;;;30.05;32.59;100524.22;5133843;28;20051;-51
2021/06/30 04:42:18;;;;;;;1.48;1.38;;;26.30;48.30;;;30.06;32.58;100539.41;5133604;28;20043;-48
2021/06/30 04:44:45;;;;;;;1.58;1.48;;;26.30;48.30;;;30.06;32.74;100543.97;5133746;28;20473;-50
2021/06/30 04:47:11;;;;;;;1.38;1.27;;;26.40;48.40;;;30.09;32.54;100535.56;5133215;28;20397;-52
2021/06/30 04:49:37;;;;;;;1.02;1.00;;;26.40;48.40;;;30.08;32.53;100531.16;5133526;28;20073;-48
2021/06/30 04:52:03;;;;;;;1.10;1.10;;;26.40;48.40;;;30.09;32.44;100531.00;5133293;28;20134;-48
2021/06/30 04:54:29;;;;;;;1.40;1.35;;;26.40;48.40;;;30.08;32.64;100523.06;5133179;28;20058;-49
2021/06/30 04:56:54;;;;;;;1.30;1.20;;;26.40;48.30;;;30.11;32.37;100525.44;5113651;28;20052;-49
2021/06/30 04:59:21;;;;;;;1.30;1.20;;;26.40;48.20;;;30.11;32.39;100518.19;5133264;28;20050;-53
2021/06/30 05:01:48;;;;;;;1.15;1.05;;;26.40;48.20;;;30.16;32.50;100530.34;5133567;28;20412;-47
2021/06/30 05:04:13;;;;;;;1.35;1.25;;;26.40;48.20;;;30.17;32.42;100529.31;5133108;28;20492;-48
2021/06/30 05:06:39;;;;;;;1.35;1.17;;;26.40;48.10;;;30.16;32.47;100533.06;5133271;28;20100;-48
2021/06/30 05:09:05;;;;;;;1.55;1.45;;;26.50;48.20;;;30.17;32.30;100542.81;5132992;28;20134;-47
2021/06/30 05:11:31;;;;;;;1.58;1.48;;;26.40;48.20;;;30.15;32.59;100540.28;5133491;28;20066;-48
2021/06/30 05:13:57;;;;;;;1.30;1.23;;;26.40;48.20;;;30.12;32.40;100540.59;5133108;28;20135;-49
2021/06/30 05:16:24;;;;;;;2.38;1.45;;;26.40;48.30;;;30.14;32.38;100548.53;5114648;28;20420;-50
2021/06/30 05:18:51;;;;;;;1.30;1.20;;;26.40;48.30;;;30.14;32.46;100551.22;5133344;28;20464;-50
2021/06/30 05:21:19;;;;;;;1.45;1.30;;;26.40;48.30;;;30.11;32.54;100550.53;5130900;28;20500;-53
2021/06/30 05:23:45;;;;;;;1.13;1.10;;;26.40;48.30;;;30.08;32.34;100539.25;5133040;27;20043;-53
2021/06/30 05:26:11;;;;;;;1.40;1.30;;;26.40;48.30;;;30.10;32.49;100548.00;5135696;28;20488;-54
2021/06/30 05:28:37;;;;;;;1.40;1.30;;;26.40;48.30;;;30.08;32.35;100537.38;5136898;28;20080;-53
2021/06/30 05:31:02;;;;;;;1.00;1.00;;;26.40;48.30;;;30.09;32.58;100530.16;5136529;28;20043;-50
2021/06/30 05:33:28;;;;;;;1.48;1.38;;;26.40;48.30;;;30.09;32.53;100530.16;5136564;28;20096;-49
2021/06/30 05:35:55;;;;;;;1.13;1.13;;;26.40;48.30;;;30.08;32.39;100529.31;5084686;28;20055;-50
2021/06/30 05:38:22;;;;;;;1.40;1.30;;;26.40;48.30;;;30.09;32.56;100530.16;5136343;28;20035;-53
2021/06/30 05:40:48;;;;;;;1.45;1.35;;;26.40;48.30;;;30.12;32.46;100529.81;5135059;28;20051;-49
2021/06/30 05:43:14;;;;;;;1.40;1.30;;;26.40;48.30;;;30.13;32.42;100531.50;5136324;28;20074;-50
2021/06/30 05:45:40;;;;;;;1.40;1.30;;;26.40;48.20;;;30.09;32.43;100520.22;5136907;28;20473;-47
2021/06/30 05:48:07;;;;;;;1.40;1.30;;;26.40;48.20;;;30.11;32.66;100523.59;5136487;28;20404;-47
2021/06/30 05:50:33;;;;;;;2.13;1.30;;;26.40;48.20;;;30.13;32.38;100523.41;5136263;28;20039;-46
2021/06/30 05:52:59;;;;;;;1.50;1.40;;;26.40;48.20;;;30.15;32.54;100528.66;5136192;28;20047;-48
2021/06/30 05:55:25;;;;;;;1.40;1.30;;;26.40;48.20;;;30.16;32.54;100527.66;5135920;28;20055;-45
2021/06/30 05:57:51;;;;;;;1.35;1.25;;;26.50;48.20;;;30.17;32.24;100526.63;5116248;28;20093;-48
2021/06/30 06:00:20;;;;;;;1.55;1.45;;;26.50;48.20;;;30.17;32.32;100526.63;5136159;28;20231;-48
2021/06/30 06:02:49;;;;;;;1.50;1.40;;;26.40;48.10;;;30.19;32.23;100530.88;5136277;28;20495;-46
2021/06/30 06:05:16;;;;;;;1.20;1.17;;;26.50;48.10;;;30.19;32.43;100532.69;5135937;28;20063;-49
2021/06/30 06:07:42;;;;;;;1.65;1.55;;;26.50;48.10;;;30.21;32.22;100528.00;5117758;28;20047;-46
2021/06/30 06:10:12;;;;;;;1.98;1.65;;;26.50;48.10;;;30.22;32.29;100526.97;5135963;28;20059;-48
2021/06/30 06:12:38;;;;;;;1.65;1.55;;;26.50;48.10;;;30.22;32.30;100526.97;5135836;28;20050;-52
2021/06/30 06:15:09;;;;;;;1.30;1.20;;;26.50;48.10;;;30.22;32.40;100527.84;5101375;28;20036;-49
2021/06/30 06:17:36;;;;;;;;;;;26.50;48.10;;;30.35;32.23;100527.34;5136212;28;20060;-53
2021/06/30 06:20:05;;;;;;;1.30;1.20;;;26.50;48.10;;;30.31;32.27;100528.69;5136138;28;19943;-52
2021/06/30 06:22:31;;;;;;;1.40;1.30;;;26.50;48.00;;;30.24;32.19;100517.72;5135776;28;20409;-51
2021/06/30 06:24:57;;;;;;;1.50;1.40;;;26.50;48.00;;;30.27;32.18;100519.25;5135672;28;20047;-50
2021/06/30 06:27:23;;;;;;;1.48;1.38;;;26.50;48.00;;;30.29;32.35;100519.94;5135646;28;20473;-51
2021/06/30 06:29:50;;;;;;;1.63;1.52;;;26.50;48.00;;;30.31;32.07;100528.69;5135795;28;20047;-51
2021/06/30 06:32:22;;;;;;;1.50;1.40;;;26.60;48.00;;;30.30;32.20;100519.78;5136201;28;20039;-52
2021/06/30 06:34:51;;;;;;;1.40;1.30;;;26.50;47.90;;;30.29;32.25;100526.16;5117423;28;20062;-49
2021/06/30 06:37:20;;;;;;;1.70;1.60;;;26.60;48.00;;;30.29;32.18;100517.25;5117337;28;20484;-50
2021/06/30 06:39:46;;;;;;;1.48;1.38;;;26.50;47.90;;;30.32;32.05;100524.97;5135435;28;20097;-50
2021/06/30 06:42:13;;;;;;;1.50;1.40;;;26.50;47.90;;;30.30;32.26;100519.78;5135305;28;20054;-50
2021/06/30 06:44:41;;;;;;;2.03;1.65;;;26.50;47.90;;;30.35;32.15;100530.03;5115548;28;20046;-47
2021/06/30 06:47:07;;;;;;;1.60;1.50;;;26.60;48.00;;;30.36;31.98;100522.81;5135287;28;20393;-49
2021/06/30 06:49:33;;;;;;;1.63;1.52;;;26.60;47.90;;;30.38;32.24;100532.44;5135126;28;20054;-48
2021/06/30 06:52:01;;;;;;;1.65;1.55;;;26.60;47.90;;;30.35;32.07;100532.75;5135374;28;20039;-49
2021/06/30 06:54:27;;;;;;;1.63;1.52;;;26.60;47.90;;;30.37;31.89;100538.88;5135190;28;20043;-47
2021/06/30 06:56:53;;;;;;;1.80;1.38;;;26.60;47.90;;;30.37;32.13;100538.88;5116745;28;20415;-53
2021/06/30 06:59:19;;;;;;;1.40;1.30;;;26.60;47.90;;;30.38;32.24;100534.31;5135413;28;20051;-50
2021/06/30 07:01:44;;;;;;;1.70;1.60;;;26.60;47.90;;;30.44;32.01;100539.06;5135518;28;20134;-51
2021/06/30 07:04:10;;;;;;;1.50;1.40;;;26.60;47.80;;;30.47;32.04;100536.88;5134970;28;20050;-52
2021/06/30 07:06:36;;;;;;;1.48;1.38;;;26.70;47.80;;;30.48;32.04;100532.31;5134921;28;20095;-52
2021/06/30 07:09:02;;;;;;;1.50;1.40;;;26.70;47.80;;;30.51;32.00;100536.53;5134847;28;20492;-48
2021/06/30 07:11:28;;;;;;;1.50;1.40;;;26.70;47.70;;;30.51;32.12;100531.97;5134895;28;20400;-48
2021/06/30 07:13:54;;;;;;;1.63;1.52;;;26.70;47.70;;;30.54;31.75;100537.03;5134926;28;20047;-46
2021/06/30 07:16:20;;;;;;;1.50;1.40;;;26.70;47.60;;;30.55;31.73;100545.97;5134744;28;20043;-47
2021/06/30 07:18:46;;;;;;;1.60;1.50;;;26.70;47.60;;;30.58;31.68;100548.34;5116604;28;20039;-47
2021/06/30 07:21:12;;;;;;;2.00;1.55;;;26.70;47.60;;;30.57;31.91;100546.66;5134776;28;20389;-49
2021/06/30 07:23:38;;;;;;;1.73;1.60;;;26.70;47.60;;;30.56;31.64;100556.59;5134964;28;20054;-53
2021/06/30 07:26:05;;;;;;;1.52;1.30;;;26.70;47.60;;;30.57;31.85;100552.03;5134589;28;20525;-50
2021/06/30 07:28:31;;;;;;;1.73;1.60;;;26.70;47.60;;;30.56;31.75;100550.38;5134975;28;20392;-53
2021/06/30 07:30:57;;;;;;;1.20;1.10;;;26.70;47.60;;;30.56;31.87;100559.31;5134644;28;20046;-48
2021/06/30 07:33:23;;;;;;;1.65;1.55;;;26.80;47.70;;;30.56;31.82;100558.47;5134855;28;20047;-50
2021/06/30 07:35:50;;;;;;;2.00;1.50;;;26.80;47.70;;;30.57;31.69;100563.69;5134384;28;20050;-50
2021/06/30 07:38:16;;;;;;;1.52;1.42;;;26.70;47.60;;;30.56;31.72;100564.69;5134569;28;20485;-48
2021/06/30 07:40:42;;;;;;;1.77;1.45;;;26.70;47.60;;;30.57;31.71;100562.84;5134425;28;20040;-52
2021/06/30 07:43:08;;;;;;;1.60;1.50;;;26.70;47.60;;;30.57;31.72;100555.59;5134410;28;20144;-48
2021/06/30 07:45:33;;;;;;;1.50;1.40;;;26.70;47.60;;;30.56;31.82;100559.31;5113233;28;20044;-50
2021/06/30 07:48:00;;;;;;;1.60;1.50;;;26.80;47.60;;;30.58;31.84;100556.44;5134020;27;20059;-53
2021/06/30 07:50:26;;;;;;;1.50;1.40;;;26.80;47.60;;;30.60;31.74;100549.00;5134082;28;20091;-52
2021/06/30 07:52:52;;;;;;;1.70;1.60;;;26.80;47.60;;;30.63;31.58;100552.22;5134643;28;20047;-51
2021/06/30 07:55:22;;;;;;;1.90;1.52;;;26.80;47.50;;;30.63;31.73;100554.91;5114219;28;20097;-49
2021/06/30 07:57:48;;;;;;;1.58;1.48;;;26.80;47.50;;;30.64;31.55;100561.19;5116023;28;20043;-52
2021/06/30 08:00:14;;;;;;;2.10;1.50;;;26.80;47.40;;;30.63;31.63;100560.31;5133987;28;20095;-49
2021/06/30 08:02:41;;;;;;;1.40;1.30;;;26.80;47.50;;;30.63;31.56;100565.72;5133992;28;20131;-52
2021/06/30 08:05:09;;;;;;;1.80;1.70;;;26.80;47.50;;;30.58;31.49;100557.28;5134336;28;20051;-46
2021/06/30 08:07:35;;;;;;;1.92;1.60;;;26.80;47.50;;;30.62;31.56;100568.56;5115523;28;20378;-50
2021/06/30 08:10:04;;;;;;;1.60;1.50;;;26.80;47.60;;;30.58;31.62;100562.66;5133927;28;20043;-51
2021/06/30 08:12:29;;;;;;;1.70;1.60;;;26.80;47.50;;;30.57;31.67;100555.59;5133846;28;20078;-52
2021/06/30 08:14:55;;;;;;;1.55;1.45;;;26.80;47.50;;;30.62;31.54;100566.75;5133768;28;20523;-46
2021/06/30 08:17:21;;;;;;;1.77;1.60;;;26.80;47.50;;;30.62;31.79;100565.88;5114136;28;20436;-46
2021/06/30 08:19:50;;;;;;;1.65;1.55;;;26.80;47.50;;;30.58;31.54;100559.13;5134144;28;20047;-49
2021/06/30 08:22:16;;;;;;;1.92;1.80;;;26.80;47.50;;;30.58;31.62;100559.97;5115370;28;20047;-47
2021/06/30 08:24:44;;;;;;;1.65;1.55;;;26.80;47.50;;;30.59;31.81;100560.81;5114523;28;20051;-51
2021/06/30 08:27:12;;;;;;;1.50;1.40;;;26.80;47.50;;;30.59;31.85;100560.81;5133538;28;20079;-52
2021/06/30 08:29:40;;;;;;;1.70;1.60;;;26.80;47.50;;;30.61;31.65;100569.59;5133459;28;20047;-51
2021/06/30 08:32:06;;;;;;;1.77;1.67;;;26.80;47.50;;;30.58;31.64;100565.38;5133433;28;20042;-49
2021/06/30 08:34:32;;;;;;;1.95;1.77;;;26.80;47.50;;;30.61;31.51;100567.75;5133659;28;20055;-51
2021/06/30 08:37:00;;;;;;;1.40;1.30;;;26.80;47.50;;;30.66;31.70;100575.34;5133624;28;20510;-48
2021/06/30 08:39:27;;;;;;;1.70;1.60;;;26.90;47.50;;;30.70;31.60;100574.00;5133930;28;20051;-49
2021/06/30 08:41:53;;;;;;;2.17;1.67;;;26.90;47.50;;;30.72;31.55;100568.44;5133395;28;20514;-51
2021/06/30 08:44:20;;;;;;;1.50;1.35;;;26.90;47.40;;;30.74;31.52;100572.66;5115413;28;20627;-52
2021/06/30 08:46:46;;;;;;;1.70;1.60;;;26.90;47.30;;;30.77;31.47;100569.63;5133481;28;20042;-53
2021/06/30 08:49:18;;;;;;;1.73;1.63;;;27.00;47.30;;;30.83;31.61;100573.50;5133363;28;20480;-51
2021/06/30 08:51:45;;;;;;;2.72;2.00;;;27.00;47.30;;;30.88;31.49;100573.00;5134024;28;20035;-52
2021/06/30 08:54:12;;;;;;;1.73;1.63;;;27.00;47.20;;;30.91;31.59;100580.78;5133890;28;20061;-51
2021/06/30 08:56:40;;;;;;;1.73;1.50;;;27.10;47.20;;;30.93;31.24;100570.66;5133174;28;20039;-50
2021/06/30 08:59:06;;;;;;;2.05;1.85;;;27.10;47.20;;;30.96;31.36;100573.88;5133152;27;20058;-53
2021/06/30 09:01:32;;;;;;;2.00;1.80;;;27.10;47.10;;;30.98;31.27;100573.72;5136589;28;20039;-49
2021/06/30 09:03:59;;;;;;;2.08;1.88;;;27.10;47.10;;;30.96;31.25;100565.78;5136856;28;20047;-49
2021/06/30 09:06:27;;;;;;;2.00;1.90;;;27.10;47.10;;;31.00;31.30;100563.59;5118783;28;20070;-51
2021/06/30 09:08:53;;;;;;;2.10;1.90;;;27.20;47.20;;;31.02;31.33;100567.81;5137020;28;20078;-52
2021/06/30 09:11:21;;;;;;;2.58;2.38;;;27.10;47.10;;;31.03;31.28;100569.50;5137360;28;20418;-47
2021/06/30 09:13:50;;;;;;;2.03;1.85;;;27.20;47.10;;;31.09;31.12;100561.72;5136881;28;20071;-48
2021/06/30 09:16:16;;;;;;;1.80;1.70;;;27.20;47.00;;;31.11;31.04;100562.41;5115503;28;20127;-49
2021/06/30 09:18:43;;;;;;;3.13;2.10;;;27.20;47.00;;;31.14;31.17;100571.03;5118312;28;20125;-54
2021/06/30 09:21:24;;;;;;;2.75;2.00;;;27.30;47.00;;;31.20;31.20;100577.59;5136584;28;20469;-53
2021/06/30 09:23:58;;;;;;;2.30;1.85;;;27.30;46.90;;;31.25;31.22;100571.69;5136609;28;20055;-48
2021/06/30 09:26:24;;;;;;;1.75;1.65;;;27.30;46.80;;;31.31;30.87;100571.00;5136992;28;20150;-49
2021/06/30 09:28:50;;;;;;;3.17;2.25;;;27.40;46.70;;;31.32;31.00;100576.22;5136494;28;20046;-46
2021/06/30 09:31:16;;;;;;;1.95;1.75;;;27.40;46.70;;;31.34;30.93;100576.03;5136383;28;20055;-52
2021/06/30 09:33:54;;;;;;;2.30;2.10;;;27.40;46.70;;;31.34;30.98;100566.09;5136447;28;20047;-48
2021/06/30 09:36:22;;;;;;;2.53;2.00;;;27.40;46.60;;;31.40;30.79;100568.09;5117884;28;20112;-49
2021/06/30 09:38:48;;;;;;;2.80;1.65;;;27.40;46.60;;;31.42;30.75;100565.22;5136431;28;20039;-48
2021/06/30 09:41:27;;;;;;;2.53;2.17;;;27.50;46.70;;;31.44;30.90;100573.16;5114241;28;20090;-48
2021/06/30 09:44:08;;;;;;;2.17;1.73;;;27.50;46.60;;;31.47;30.79;100576.34;5136659;28;20125;-48
2021/06/30 09:46:36;;;;;;;;;;;27.50;46.50;;;31.64;30.60;100573.66;5136616;28;20501;-51
2021/06/30 09:49:07;;;;;;;2.20;2.00;;;27.60;47.10;;;31.60;30.35;100577.75;5136522;28;20343;-48
2021/06/30 09:51:33;;;;;;;2.25;2.05;;;27.60;46.50;;;31.57;30.47;100582.47;5136523;28;20104;-53
2021/06/30 09:54:16;;;;;;;2.20;2.00;;;27.60;47.00;;;31.56;30.62;100578.06;5136145;28;20047;-47
2021/06/30 09:57:17;;;;;;;2.85;2.13;;;27.60;46.50;;;31.56;30.58;100575.38;5135896;28;20054;-45
2021/06/30 09:59:50;;;;;;;1.85;1.75;;;27.60;46.50;;;31.58;30.67;100586.00;5092423;28;20051;-53
2021/06/30 10:02:23;;;;;;;2.22;2.00;;;27.60;46.50;;;31.55;30.68;100578.25;5136004;28;20043;-51
2021/06/30 10:04:59;;;;;;;3.05;2.38;;;27.60;46.60;;;31.52;30.58;100574.03;5136049;28;20484;-50
2021/06/30 10:07:29;;;;;;;2.03;1.88;;;27.60;46.60;;;31.51;30.74;100577.75;5116576;28;20063;-46
2021/06/30 10:09:55;;;;;;;1.90;1.80;;;27.50;46.50;;;31.54;30.41;100574.72;5136430;28;20459;-50
2021/06/30 10:12:25;;;;;;;2.50;2.30;;;27.60;46.60;;;31.54;30.48;100577.41;5135306;27;20049;-48